createdAt,value
2022-09-04T00:05:04.045Z,73.80
2022-09-04T00:10:12.881Z,72.80
2022-09-04T00:15:19.355Z,72.20
2022-09-04T00:20:28.477Z,72.00
2022-09-04T00:25:35.083Z,71.80
2022-09-04T00:30:41.994Z,71.70
2022-09-04T00:35:49.681Z,71.60
2022-09-04T00:40:57.813Z,71.90
2022-09-04T00:46:19.306Z,72.00
2022-09-04T00:51:30.819Z,71.80
2022-09-04T00:56:47.805Z,72.30
2022-09-04T01:01:56.027Z,71.90
2022-09-04T01:07:04.720Z,72.40
2022-09-04T01:12:13.844Z,72.40
2022-09-04T01:17:27.565Z,72.70
2022-09-04T01:22:35.894Z,72.60
2022-09-04T01:27:45.500Z,72.80
2022-09-04T01:33:00.977Z,72.50
2022-09-04T01:38:08.144Z,72.60
2022-09-04T01:43:12.901Z,72.50
2022-09-04T01:48:17.964Z,72.50
2022-09-04T01:53:24.866Z,72.70
2022-09-04T01:58:34.237Z,72.70
2022-09-04T02:03:40.194Z,72.40
2022-09-04T02:08:49.812Z,72.80
2022-09-04T02:14:04.321Z,72.70
2022-09-04T02:19:13.325Z,72.60
2022-09-04T02:24:21.676Z,72.70
2022-09-04T02:29:28.710Z,72.50
2022-09-04T02:34:40.477Z,72.80
2022-09-04T02:39:46.814Z,72.70
2022-09-04T02:44:58.993Z,72.10
2022-09-04T02:50:08.461Z,72.00
2022-09-04T02:55:15.438Z,72.50
2022-09-04T03:00:21.386Z,72.00
2022-09-04T03:05:26.316Z,72.10
2022-09-04T03:10:31.739Z,72.10
2022-09-04T03:15:40.646Z,72.00
2022-09-04T03:20:45.450Z,72.20
2022-09-04T03:26:00.293Z,72.10
2022-09-04T03:31:08.210Z,71.70
2022-09-04T03:36:13.284Z,72.00
2022-09-04T03:41:18.858Z,71.90
2022-09-04T03:46:28.270Z,71.80
2022-09-04T03:51:34.674Z,72.20
2022-09-04T03:56:42.837Z,72.80
2022-09-04T04:01:52.473Z,72.80
2022-09-04T04:07:00.887Z,73.00
2022-09-04T04:12:13.523Z,72.80
2022-09-04T04:17:23.898Z,72.60
2022-09-04T04:22:33.308Z,72.70
2022-09-04T04:27:54.524Z,72.80
2022-09-04T04:33:05.974Z,72.70
2022-09-04T04:38:19.174Z,72.80
2022-09-04T04:43:27.286Z,72.70
2022-09-04T04:48:40.141Z,72.40
2022-09-04T04:53:46.822Z,72.40
2022-09-04T04:58:53.884Z,72.50
2022-09-04T05:04:06.241Z,72.10
2022-09-04T05:09:14.661Z,72.40
2022-09-04T05:14:24.019Z,72.10
2022-09-04T05:19:30.961Z,71.70
2022-09-04T05:24:36.962Z,71.90
2022-09-04T05:29:47.410Z,72.00
2022-09-04T05:34:58.341Z,71.80
2022-09-04T05:40:04.120Z,71.60
2022-09-04T05:45:11.849Z,71.30
2022-09-04T05:50:24.564Z,71.30
2022-09-04T05:55:36.886Z,71.30
2022-09-04T06:00:44.470Z,71.40
2022-09-04T06:05:58.230Z,71.80
2022-09-04T06:11:06.170Z,71.60
2022-09-04T06:16:18.987Z,71.70
2022-09-04T06:21:34.204Z,71.60
2022-09-04T06:26:45.794Z,72.20
2022-09-04T06:32:09.291Z,72.60
2022-09-04T06:37:21.777Z,72.70
2022-09-04T06:42:31.675Z,72.70
2022-09-04T06:47:42.599Z,72.90
2022-09-04T06:52:55.808Z,73.40
2022-09-04T06:58:08.970Z,74.10
2022-09-04T07:03:18.500Z,74.10
2022-09-04T07:08:27.442Z,74.20
2022-09-04T07:13:45.877Z,74.30
2022-09-04T07:19:09.537Z,74.50
2022-09-04T07:24:33.206Z,74.50
2022-09-04T07:29:37.349Z,74.60
2022-09-04T07:34:44.609Z,73.10
2022-09-04T07:39:51.578Z,72.90
2022-09-04T07:44:55.629Z,72.80
2022-09-04T07:50:01.746Z,72.40
2022-09-04T07:55:09.499Z,72.30
2022-09-04T08:00:15.260Z,71.80
2022-09-04T08:05:25.250Z,71.60
2022-09-04T08:10:32.330Z,71.40
2022-09-04T08:15:42.903Z,71.20
2022-09-04T08:20:48.598Z,71.40
2022-09-04T08:25:55.772Z,71.20
2022-09-04T08:31:05.232Z,71.60
2022-09-04T08:36:12.114Z,71.40
2022-09-04T08:41:32.555Z,71.40
2022-09-04T08:47:01.778Z,71.00
2022-09-04T08:52:28.534Z,71.10
2022-09-04T08:57:46.678Z,70.90
2022-09-04T09:03:07.897Z,71.00
2022-09-04T09:08:29.689Z,70.70
2022-09-04T09:14:01.261Z,70.70
2022-09-04T09:19:11.998Z,70.40
2022-09-04T09:24:35.862Z,70.10
2022-09-04T09:29:48.778Z,69.80
2022-09-04T09:35:14.421Z,69.90
2022-09-04T09:40:27.824Z,69.70
2022-09-04T09:45:48.505Z,69.60
2022-09-04T09:51:13.654Z,69.50
2022-09-04T09:56:24.962Z,69.10
2022-09-04T10:01:34.986Z,69.10
2022-09-04T10:06:56.543Z,69.30
2022-09-04T10:12:12.727Z,69.10
2022-09-04T10:17:36.431Z,69.10
2022-09-04T10:22:48.400Z,68.80
2022-09-04T10:27:59.255Z,68.90
2022-09-04T10:33:19.634Z,68.70
2022-09-04T10:38:28.293Z,68.30
2022-09-04T10:43:46.637Z,68.10
2022-09-04T10:49:11.390Z,68.00
2022-09-04T10:54:33.597Z,68.10
2022-09-04T10:59:48.456Z,67.80
2022-09-04T11:05:09.661Z,67.50
2022-09-04T11:10:21.002Z,67.60
2022-09-04T11:15:30.778Z,67.70
2022-09-04T11:20:48.302Z,67.30
2022-09-04T11:26:23.082Z,67.50
2022-09-04T11:31:35.886Z,67.60
2022-09-04T11:36:53.737Z,67.40
2022-09-04T11:42:08.307Z,67.50
2022-09-04T11:47:25.103Z,67.10
2022-09-04T11:52:38.671Z,67.00
2022-09-04T11:57:46.885Z,66.80
2022-09-04T12:03:07.349Z,66.60
2022-09-04T12:08:20.405Z,66.90
2022-09-04T12:13:31.740Z,66.40
2022-09-04T12:18:45.650Z,66.30
2022-09-04T12:24:00.534Z,66.20
2022-09-04T12:29:17.195Z,66.30
2022-09-04T12:34:36.502Z,66.30
2022-09-04T12:40:00.175Z,66.40
2022-09-04T12:45:11.493Z,66.20
2022-09-04T12:50:21.015Z,66.30
2022-09-04T12:55:35.972Z,66.40
2022-09-04T13:00:48.594Z,66.30
2022-09-04T13:06:03.858Z,66.40
2022-09-04T13:11:14.770Z,66.30
2022-09-04T13:16:23.401Z,66.40
2022-09-04T13:21:30.143Z,66.30
2022-09-04T13:26:43.104Z,66.60
2022-09-04T13:31:56.975Z,66.30
2022-09-04T13:37:06.104Z,66.20
2022-09-04T13:42:18.193Z,64.90
2022-09-04T13:47:31.915Z,65.80
2022-09-04T13:52:37.616Z,64.60
2022-09-04T13:57:42.605Z,64.40
2022-09-04T14:02:47.508Z,64.30
2022-09-04T14:07:52.510Z,64.10
2022-09-04T14:13:03.683Z,64.10
2022-09-04T14:18:16.141Z,63.60
2022-09-04T14:23:21.616Z,63.40
2022-09-04T14:28:31.139Z,63.70
2022-09-04T14:33:42.935Z,63.10
2022-09-04T14:38:50.681Z,62.70
2022-09-04T14:43:59.390Z,62.20
2022-09-04T14:49:06.062Z,61.80
2022-09-04T14:54:10.104Z,61.50
2022-09-04T14:59:17.581Z,60.80
2022-09-04T15:04:24.006Z,59.80
2022-09-04T15:09:28.678Z,57.40
2022-09-04T15:14:34.310Z,57.10
2022-09-04T15:19:46.460Z,56.90
2022-09-04T15:24:51.506Z,56.80
2022-09-04T15:30:00.182Z,56.10
2022-09-04T15:35:14.963Z,56.40
2022-09-04T15:40:28.961Z,56.30
2022-09-04T15:45:35.953Z,55.50
2022-09-04T15:50:45.609Z,56.10
2022-09-04T15:55:50.417Z,56.20
2022-09-04T16:01:08.036Z,56.20
2022-09-04T16:06:17.188Z,56.40
2022-09-04T16:11:23.817Z,56.60
2022-09-04T16:16:29.291Z,56.80
2022-09-04T16:21:40.523Z,56.80
2022-09-04T16:26:47.058Z,56.60
2022-09-04T16:31:53.087Z,56.60
2022-09-04T16:37:01.803Z,56.90
2022-09-04T16:42:11.937Z,56.70
2022-09-04T16:47:19.129Z,56.90
2022-09-04T16:52:39.816Z,56.90
2022-09-04T16:57:58.278Z,57.10
2022-09-04T17:03:02.931Z,56.80
2022-09-04T17:08:10.178Z,56.60
2022-09-04T17:13:27.973Z,56.80
2022-09-04T17:18:32.175Z,57.00
2022-09-04T17:28:59.006Z,57.60
2022-09-04T17:40:33.132Z,59.60
2022-09-04T17:40:50.438Z,60.40
2022-09-04T17:45:39.275Z,60.60
2022-09-04T17:50:48.830Z,61.10
2022-09-04T17:55:55.349Z,61.30
2022-09-04T18:01:14.501Z,61.60
2022-09-04T18:06:19.978Z,61.80
2022-09-04T18:11:26.963Z,61.90
2022-09-04T18:17:11.548Z,62.00
2022-09-04T18:22:26.930Z,62.40
2022-09-04T18:27:37.485Z,62.60
2022-09-04T18:37:20.785Z,62.80
2022-09-04T18:38:15.347Z,63.30
2022-09-04T18:50:28.223Z,63.40
2022-09-04T18:50:39.984Z,63.60
2022-09-04T18:54:10.975Z,64.00
2022-09-04T18:59:16.230Z,63.90
2022-09-04T19:04:31.577Z,64.20
2022-09-04T19:09:47.311Z,64.50
2022-09-04T19:14:56.994Z,65.00
2022-09-04T19:20:02.494Z,65.10
2022-09-04T19:25:13.673Z,66.10
2022-09-04T19:30:20.057Z,66.50
2022-09-04T19:35:32.158Z,66.80
2022-09-04T19:46:03.051Z,66.90
2022-09-04T19:46:28.000Z,67.10
2022-09-04T19:53:29.745Z,67.20
2022-09-04T19:57:32.658Z,67.30
2022-09-04T20:02:33.428Z,68.10
2022-09-04T20:07:41.954Z,69.30
2022-09-04T20:12:50.732Z,69.40
2022-09-04T20:18:14.870Z,70.10
2022-09-04T20:23:34.274Z,70.00
2022-09-04T20:28:48.524Z,69.80
2022-09-04T20:33:53.326Z,70.10
2022-09-04T20:38:58.008Z,70.20
2022-09-04T20:44:05.076Z,70.20
2022-09-04T20:52:52.614Z,70.50
2022-09-04T20:54:53.834Z,70.50
2022-09-04T21:03:10.309Z,70.70
2022-09-04T21:05:41.380Z,70.80
2022-09-04T21:10:49.369Z,70.50
2022-09-04T21:15:59.400Z,70.50
2022-09-04T21:21:23.031Z,70.40
2022-09-04T21:26:33.802Z,70.30
2022-09-04T21:32:06.619Z,70.50
2022-09-04T21:37:14.942Z,70.60
2022-09-04T21:42:30.178Z,70.70
2022-09-04T21:47:45.068Z,70.50
2022-09-04T21:53:00.814Z,70.70
2022-09-04T22:02:37.496Z,70.90
2022-09-04T22:03:52.504Z,71.00
2022-09-04T22:13:34.441Z,70.90
2022-09-04T22:14:25.396Z,70.80
2022-09-04T22:19:40.046Z,70.80
2022-09-04T22:25:01.210Z,70.80
2022-09-04T22:30:08.766Z,70.80
2022-09-04T22:35:21.294Z,70.90
2022-09-04T22:40:56.011Z,70.80
2022-09-04T22:46:14.273Z,70.30
2022-09-04T22:51:21.919Z,70.60
2022-09-04T22:56:33.455Z,70.60
2022-09-04T23:01:46.535Z,71.00
2022-09-04T23:11:37.258Z,71.30
2022-09-04T23:13:56.343Z,71.30
2022-09-04T23:19:52.234Z,71.30
2022-09-04T23:26:44.995Z,71.30
2022-09-04T23:29:13.282Z,71.30
2022-09-04T23:34:32.381Z,71.60
2022-09-04T23:39:54.108Z,71.40
2022-09-04T23:45:10.680Z,71.40
2022-09-04T23:50:20.653Z,71.70
2022-09-04T23:55:41.496Z,71.40
